sensor_id;sensor_type;location;lat;lon;timestamp;pressure;altitude;pressure_sealevel;temperature;humidity
46087;BME280;31824;49.648;8.640;2023-09-19T00:00:12;99818.44;;;17.51;100.00
46087;BME280;31824;49.648;8.640;2023-09-19T00:03:14;99826.91;;;17.44;100.00
46087;BME280;31824;49.648;8.640;2023-09-19T00:06:17;99824.25;;;17.44;100.00
46087;BME280;31824;49.648;8.640;2023-09-19T00:09:19;99832.28;;;17.46;100.00
46087;BME280;31824;49.648;8.640;2023-09-19T00:12:22;99826.41;;;17.51;100.00
46087;BME280;31824;49.648;8.640;2023-09-19T00:15:24;99834.03;;;17.45;100.00
46087;BME280;31824;49.648;8.640;2023-09-19T00:18:26;99825.13;;;17.45;100.00
46087;BME280;31824;49.648;8.640;2023-09-19T00:21:33;99832.19;;;17.44;100.00
46087;BME280;31824;49.648;8.640;2023-09-19T00:24:35;99843.38;;;17.53;100.00
46087;BME280;31824;49.648;8.640;2023-09-19T00:27:38;99833.41;;;17.49;100.00
46087;BME280;31824;49.648;8.640;2023-09-19T00:30:43;99834.69;;;17.56;100.00
46087;BME280;31824;49.648;8.640;2023-09-19T00:33:45;99839.44;;;17.62;100.00
46087;BME280;31824;49.648;8.640;2023-09-19T00:36:47;99833.94;;;17.59;100.00
46087;BME280;31824;49.648;8.640;2023-09-19T00:39:49;99836.31;;;17.54;100.00
46087;BME280;31824;49.648;8.640;2023-09-19T00:42:57;99833.94;;;17.59;100.00
46087;BME280;31824;49.648;8.640;2023-09-19T00:46:01;99837.59;;;17.61;100.00
46087;BME280;31824;49.648;8.640;2023-09-19T00:49:06;99830.91;;;17.52;100.00
46087;BME280;31824;49.648;8.640;2023-09-19T00:52:10;99847.13;;;17.57;100.00
46087;BME280;31824;49.648;8.640;2023-09-19T00:55:14;99847.13;;;17.57;100.00
46087;BME280;31824;49.648;8.640;2023-09-19T00:58:19;99840.72;;;17.53;100.00
46087;BME280;31824;49.648;8.640;2023-09-19T01:01:21;99853.19;;;17.40;100.00
46087;BME280;31824;49.648;8.640;2023-09-19T01:04:23;99859.22;;;17.37;100.00
46087;BME280;31824;49.648;8.640;2023-09-19T01:07:25;99858.13;;;17.48;100.00
46087;BME280;31824;49.648;8.640;2023-09-19T01:10:27;99866.91;;;17.47;100.00
46087;BME280;31824;49.648;8.640;2023-09-19T01:13:34;99863.09;;;17.42;100.00
46087;BME280;31824;49.648;8.640;2023-09-19T01:16:50;99864.97;;;17.45;100.00
46087;BME280;31824;49.648;8.640;2023-09-19T01:20:17;99874.06;;;17.48;100.00
46087;BME280;31824;49.648;8.640;2023-09-19T01:23:24;99870.75;;;17.52;100.00
46087;BME280;31824;49.648;8.640;2023-09-19T01:26:39;99880.47;;;17.52;100.00
46087;BME280;31824;49.648;8.640;2023-09-19T01:29:48;99885.78;;;17.52;100.00
46087;BME280;31824;49.648;8.640;2023-09-19T01:32:52;99872.59;;;17.53;100.00
46087;BME280;31824;49.648;8.640;2023-09-19T01:35:54;99885.97;;;17.55;100.00
46087;BME280;31824;49.648;8.640;2023-09-19T01:39:02;99877.53;;;17.47;100.00
46087;BME280;31824;49.648;8.640;2023-09-19T01:42:14;99883.78;;;17.48;100.00
46087;BME280;31824;49.648;8.640;2023-09-19T01:45:25;99887.25;;;17.32;100.00
46087;BME280;31824;49.648;8.640;2023-09-19T01:48:35;99889.06;;;17.33;100.00
46087;BME280;31824;49.648;8.640;2023-09-19T01:51:46;99893.28;;;17.29;100.00
46087;BME280;31824;49.648;8.640;2023-09-19T01:54:52;99892.38;;;17.29;100.00
46087;BME280;31824;49.648;8.640;2023-09-19T01:58:00;99895.38;;;17.20;100.00
46087;BME280;31824;49.648;8.640;2023-09-19T02:01:03;99895.19;;;17.17;100.00
46087;BME280;31824;49.648;8.640;2023-09-19T02:04:09;99898.94;;;17.20;100.00
46087;BME280;31824;49.648;8.640;2023-09-19T02:07:11;99901.78;;;17.24;100.00
46087;BME280;31824;49.648;8.640;2023-09-19T02:10:13;99915.69;;;17.19;100.00
46087;BME280;31824;49.648;8.640;2023-09-19T02:13:15;99916.69;;;17.21;100.00
46087;BME280;31824;49.648;8.640;2023-09-19T02:16:19;99938.47;;;17.16;100.00
46087;BME280;31824;49.648;8.640;2023-09-19T02:19:23;99933.13;;;17.01;100.00
46087;BME280;31824;49.648;8.640;2023-09-19T02:22:25;99933.84;;;16.98;100.00
46087;BME280;31824;49.648;8.640;2023-09-19T02:25:27;99933.47;;;16.92;100.00
46087;BME280;31824;49.648;8.640;2023-09-19T02:28:29;99948.16;;;16.87;100.00
46087;BME280;31824;49.648;8.640;2023-09-19T02:31:34;99954.38;;;16.87;100.00
46087;BME280;31824;49.648;8.640;2023-09-19T02:34:37;99949.91;;;16.86;100.00
46087;BME280;31824;49.648;8.640;2023-09-19T02:37:40;99953.81;;;16.78;100.00
46087;BME280;31824;49.648;8.640;2023-09-19T02:40:42;99966.84;;;16.75;100.00
46087;BME280;31824;49.648;8.640;2023-09-19T02:43:45;99956.72;;;16.83;100.00
46087;BME280;31824;49.648;8.640;2023-09-19T02:46:47;99962.84;;;16.82;100.00
46087;BME280;31824;49.648;8.640;2023-09-19T02:49:50;99965.41;;;16.80;100.00
46087;BME280;31824;49.648;8.640;2023-09-19T02:52:52;99973.56;;;16.83;100.00
46087;BME280;31824;49.648;8.640;2023-09-19T02:55:55;99976.22;;;16.83;100.00
46087;BME280;31824;49.648;8.640;2023-09-19T02:58:57;99983.34;;;16.84;100.00
46087;BME280;31824;49.648;8.640;2023-09-19T03:01:59;99985.09;;;16.84;100.00
46087;BME280;31824;49.648;8.640;2023-09-19T03:05:04;99986.03;;;16.71;100.00
46087;BME280;31824;49.648;8.640;2023-09-19T03:08:06;99984.94;;;16.67;100.00
46087;BME280;31824;49.648;8.640;2023-09-19T03:11:08;99987.16;;;16.75;100.00
46087;BME280;31824;49.648;8.640;2023-09-19T03:14:14;99991.22;;;16.83;100.00
46087;BME280;31824;49.648;8.640;2023-09-19T03:17:17;99990.31;;;16.82;100.00
46087;BME280;31824;49.648;8.640;2023-09-19T03:20:23;99994.50;;;16.79;100.00
46087;BME280;31824;49.648;8.640;2023-09-19T03:23:24;100002.56;;;16.80;100.00
46087;BME280;31824;49.648;8.640;2023-09-19T03:26:27;99990.34;;;16.69;100.00
46087;BME280;31824;49.648;8.640;2023-09-19T03:29:30;99995.06;;;16.60;100.00
46087;BME280;31824;49.648;8.640;2023-09-19T03:32:34;99993.53;;;16.63;100.00
46087;BME280;31824;49.648;8.640;2023-09-19T03:35:37;99998.22;;;16.54;100.00
46087;BME280;31824;49.648;8.640;2023-09-19T03:38:40;99998.13;;;16.52;100.00
46087;BME280;31824;49.648;8.640;2023-09-19T03:41:42;99997.50;;;16.57;100.00
46087;BME280;31824;49.648;8.640;2023-09-19T03:44:44;100001.06;;;16.57;100.00
46087;BME280;31824;49.648;8.640;2023-09-19T03:47:46;100003.00;;;16.46;100.00
46087;BME280;31824;49.648;8.640;2023-09-19T03:50:53;100000.16;;;16.43;100.00
46087;BME280;31824;49.648;8.640;2023-09-19T03:53:56;100006.09;;;16.39;100.00
46087;BME280;31824;49.648;8.640;2023-09-19T03:56:57;100002.13;;;16.32;100.00
46087;BME280;31824;49.648;8.640;2023-09-19T03:59:59;100004.44;;;16.41;100.00
46087;BME280;31824;49.648;8.640;2023-09-19T04:03:01;100004.75;;;16.46;100.00
46087;BME280;31824;49.648;8.640;2023-09-19T04:06:09;100008.75;;;16.39;100.00
46087;BME280;31824;49.648;8.640;2023-09-19T04:09:10;100014.56;;;16.33;100.00
46087;BME280;31824;49.648;8.640;2023-09-19T04:12:15;100013.63;;;16.33;100.00
46087;BME280;31824;49.648;8.640;2023-09-19T04:15:19;100014.34;;;16.30;100.00
46087;BME280;31824;49.648;8.640;2023-09-19T04:18:21;100019.34;;;16.26;100.00
46087;BME280;31824;49.648;8.640;2023-09-19T04:21:26;100015.97;;;16.28;100.00
46087;BME280;31824;49.648;8.640;2023-09-19T04:24:29;100014.84;;;16.25;100.00
46087;BME280;31824;49.648;8.640;2023-09-19T04:27:31;100021.16;;;16.13;100.00
46087;BME280;31824;49.648;8.640;2023-09-19T04:30:33;100019.84;;;16.20;100.00
46087;BME280;31824;49.648;8.640;2023-09-19T04:33:35;100033.81;;;16.17;100.00
46087;BME280;31824;49.648;8.640;2023-09-19T04:36:38;100037.38;;;16.18;100.00
46087;BME280;31824;49.648;8.640;2023-09-19T04:39:40;100040.03;;;16.18;100.00
46087;BME280;31824;49.648;8.640;2023-09-19T04:42:41;100035.66;;;16.18;100.00
46087;BME280;31824;49.648;8.640;2023-09-19T04:45:43;100036.13;;;16.13;100.00
46087;BME280;31824;49.648;8.640;2023-09-19T04:48:45;100040.94;;;16.05;100.00
46087;BME280;31824;49.648;8.640;2023-09-19T04:51:48;100050.28;;;16.00;100.00
46087;BME280;31824;49.648;8.640;2023-09-19T04:54:50;100058.03;;;15.97;100.00
46087;BME280;31824;49.648;8.640;2023-09-19T04:57:52;100060.69;;;15.97;100.00
46087;BME280;31824;49.648;8.640;2023-09-19T05:00:57;100056.00;;;15.93;100.00
46087;BME280;31824;49.648;8.640;2023-09-19T05:03:59;100060.47;;;15.94;100.00
46087;BME280;31824;49.648;8.640;2023-09-19T05:07:02;100063.72;;;15.90;100.00
46087;BME280;31824;49.648;8.640;2023-09-19T05:10:06;100075.25;;;15.90;100.00
46087;BME280;31824;49.648;8.640;2023-09-19T05:13:08;100070.69;;;15.76;100.00
46087;BME280;31824;49.648;8.640;2023-09-19T05:16:10;100075.22;;;15.65;100.00
46087;BME280;31824;49.648;8.640;2023-09-19T05:19:12;100091.59;;;15.59;100.00
46087;BME280;31824;49.648;8.640;2023-09-19T05:22:15;100091.16;;;15.78;100.00
46087;BME280;31824;49.648;8.640;2023-09-19T05:25:17;100095.66;;;15.79;100.00
46087;BME280;31824;49.648;8.640;2023-09-19T05:28:19;100100.41;;;15.83;100.00
46087;BME280;31824;49.648;8.640;2023-09-19T05:31:21;100105.28;;;15.91;100.00
46087;BME280;31824;49.648;8.640;2023-09-19T05:34:23;100105.94;;;16.00;100.00
46087;BME280;31824;49.648;8.640;2023-09-19T05:37:28;100102.84;;;15.94;100.00
46087;BME280;31824;49.648;8.640;2023-09-19T05:40:31;100105.50;;;15.94;100.00
46087;BME280;31824;49.648;8.640;2023-09-19T05:43:33;100106.44;;;15.94;100.00
46087;BME280;31824;49.648;8.640;2023-09-19T05:46:35;100099.41;;;15.95;100.00
46087;BME280;31824;49.648;8.640;2023-09-19T05:49:37;100100.44;;;15.97;100.00
46087;BME280;31824;49.648;8.640;2023-09-19T05:52:43;100095.53;;;16.03;100.00
46087;BME280;31824;49.648;8.640;2023-09-19T05:55:46;100100.19;;;15.94;100.00
46087;BME280;31824;49.648;8.640;2023-09-19T05:58:47;100105.84;;;15.98;100.00
46087;BME280;31824;49.648;8.640;2023-09-19T06:01:51;100115.09;;;15.92;100.00
46087;BME280;31824;49.648;8.640;2023-09-19T06:04:54;100114.19;;;15.91;100.00
46087;BME280;31824;49.648;8.640;2023-09-19T06:07:58;100113.69;;;15.97;100.00
46087;BME280;31824;49.648;8.640;2023-09-19T06:11:02;100116.34;;;15.97;100.00
46087;BME280;31824;49.648;8.640;2023-09-19T06:14:04;100122.63;;;15.99;100.00
46087;BME280;31824;49.648;8.640;2023-09-19T06:17:06;100122.47;;;16.09;100.00
46087;BME280;31824;49.648;8.640;2023-09-19T06:20:08;100120.38;;;16.17;100.00
46087;BME280;31824;49.648;8.640;2023-09-19T06:23:15;100127.78;;;16.09;100.00
46087;BME280;31824;49.648;8.640;2023-09-19T06:26:17;100126.03;;;16.10;100.00
46087;BME280;31824;49.648;8.640;2023-09-19T06:29:19;100121.56;;;16.22;100.00
46087;BME280;31824;49.648;8.640;2023-09-19T06:32:26;100128.03;;;16.26;100.00
46087;BME280;31824;49.648;8.640;2023-09-19T06:35:29;100134.75;;;16.34;100.00
46087;BME280;31824;49.648;8.640;2023-09-19T06:38:35;100129.16;;;16.29;100.00
46087;BME280;31824;49.648;8.640;2023-09-19T06:41:38;100134.66;;;16.32;100.00
46087;BME280;31824;49.648;8.640;2023-09-19T06:44:44;100133.75;;;16.45;100.00
46087;BME280;31824;49.648;8.640;2023-09-19T06:47:45;100143.66;;;16.48;100.00
46087;BME280;31824;49.648;8.640;2023-09-19T06:50:52;100158.16;;;16.53;100.00
46087;BME280;31824;49.648;8.640;2023-09-19T06:53:55;100161.00;;;16.56;100.00
46087;BME280;31824;49.648;8.640;2023-09-19T06:56:59;100169.19;;;16.59;100.00
46087;BME280;31824;49.648;8.640;2023-09-19T07:00:01;100177.25;;;16.61;100.00
46087;BME280;31824;49.648;8.640;2023-09-19T07:03:06;100179.06;;;16.62;100.00
46087;BME280;31824;49.648;8.640;2023-09-19T07:06:13;100194.38;;;16.66;100.00
46087;BME280;31824;49.648;8.640;2023-09-19T07:09:16;100200.16;;;16.60;100.00
46087;BME280;31824;49.648;8.640;2023-09-19T07:12:18;100201.75;;;16.70;100.00
46087;BME280;31824;49.648;8.640;2023-09-19T07:15:21;100196.09;;;16.65;100.00
46087;BME280;31824;49.648;8.640;2023-09-19T07:18:24;100204.06;;;16.65;100.00
46087;BME280;31824;49.648;8.640;2023-09-19T07:21:27;100196.06;;;16.52;100.00
46087;BME280;31824;49.648;8.640;2023-09-19T07:24:31;100199.97;;;16.57;100.00
46087;BME280;31824;49.648;8.640;2023-09-19T07:27:34;100198.75;;;16.65;100.00
46087;BME280;31824;49.648;8.640;2023-09-19T07:30:36;100200.41;;;16.63;100.00
46087;BME280;31824;49.648;8.640;2023-09-19T07:33:43;100207.44;;;16.76;100.00
46087;BME280;31824;49.648;8.640;2023-09-19T07:36:45;100207.03;;;16.83;100.00
46087;BME280;31824;49.648;8.640;2023-09-19T07:39:50;100209.38;;;16.79;100.00
46087;BME280;31824;49.648;8.640;2023-09-19T07:42:52;100221.31;;;16.72;100.00
46087;BME280;31824;49.648;8.640;2023-09-19T07:45:54;100218.88;;;16.88;100.00
46087;BME280;31824;49.648;8.640;2023-09-19T07:48:56;100225.03;;;17.01;100.00
46087;BME280;31824;49.648;8.640;2023-09-19T07:51:58;100223.63;;;17.06;100.00
46087;BME280;31824;49.648;8.640;2023-09-19T07:55:02;100221.16;;;16.96;100.00
46087;BME280;31824;49.648;8.640;2023-09-19T07:58:10;100230.97;;;17.10;100.00
46087;BME280;31824;49.648;8.640;2023-09-19T08:01:12;100228.41;;;17.25;100.00
46087;BME280;31824;49.648;8.640;2023-09-19T08:04:15;100220.03;;;17.32;100.00
46087;BME280;31824;49.648;8.640;2023-09-19T08:07:17;100225.75;;;17.38;100.00
46087;BME280;31824;49.648;8.640;2023-09-19T08:10:21;100228.63;;;17.28;100.00
46087;BME280;31824;49.648;8.640;2023-09-19T08:13:23;100245.25;;;17.39;100.00
46087;BME280;31824;49.648;8.640;2023-09-19T08:16:25;100244.63;;;17.30;100.00
46087;BME280;31824;49.648;8.640;2023-09-19T08:19:27;100250.38;;;17.36;100.00
46087;BME280;31824;49.648;8.640;2023-09-19T08:22:30;100257.53;;;17.50;100.00
46087;BME280;31824;49.648;8.640;2023-09-19T08:25:34;100264.25;;;17.59;100.00
46087;BME280;31824;49.648;8.640;2023-09-19T08:28:36;100267.53;;;17.68;100.00
46087;BME280;31824;49.648;8.640;2023-09-19T08:31:38;100268.22;;;17.65;100.00
46087;BME280;31824;49.648;8.640;2023-09-19T08:34:40;100270.88;;;17.65;100.00
46087;BME280;31824;49.648;8.640;2023-09-19T08:37:43;100265.25;;;17.47;100.00
46087;BME280;31824;49.648;8.640;2023-09-19T08:40:48;100275.41;;;17.53;100.00
46087;BME280;31824;49.648;8.640;2023-09-19T08:43:51;100277.31;;;17.55;100.00
46087;BME280;31824;49.648;8.640;2023-09-19T08:46:55;100276.03;;;17.49;100.00
46087;BME280;31824;49.648;8.640;2023-09-19T08:50:01;100282.16;;;17.48;100.00
46087;BME280;31824;49.648;8.640;2023-09-19T08:53:10;100277.22;;;17.67;100.00
46087;BME280;31824;49.648;8.640;2023-09-19T08:56:17;100278.84;;;17.65;100.00
46087;BME280;31824;49.648;8.640;2023-09-19T08:59:21;100278.97;;;17.67;100.00
46087;BME280;31824;49.648;8.640;2023-09-19T09:02:26;100274.53;;;17.81;100.00
46087;BME280;31824;49.648;8.640;2023-09-19T09:05:29;100281.47;;;17.79;100.00
46087;BME280;31824;49.648;8.640;2023-09-19T09:08:33;100276.56;;;17.85;100.00
46087;BME280;31824;49.648;8.640;2023-09-19T09:11:38;100273.50;;;17.79;100.00
46087;BME280;31824;49.648;8.640;2023-09-19T09:14:44;100276.84;;;17.89;100.00
46087;BME280;31824;49.648;8.640;2023-09-19T09:17:46;100275.25;;;17.92;100.00
46087;BME280;31824;49.648;8.640;2023-09-19T09:20:50;100280.53;;;18.05;100.00
46087;BME280;31824;49.648;8.640;2023-09-19T09:23:51;100275.03;;;17.88;100.00
46087;BME280;31824;49.648;8.640;2023-09-19T09:26:56;100278.69;;;17.91;100.00
46087;BME280;31824;49.648;8.640;2023-09-19T09:29:59;100281.53;;;18.07;100.00
46087;BME280;31824;49.648;8.640;2023-09-19T09:33:11;100281.25;;;18.02;100.00
46087;BME280;31824;49.648;8.640;2023-09-19T09:36:14;100293.16;;;18.22;100.00
46087;BME280;31824;49.648;8.640;2023-09-19T09:39:29;100279.38;;;18.15;100.00
46087;BME280;31824;49.648;8.640;2023-09-19T09:42:35;100286.59;;;18.31;100.00
46087;BME280;31824;49.648;8.640;2023-09-19T09:45:37;100296.75;;;18.23;100.00
46087;BME280;31824;49.648;8.640;2023-09-19T09:48:39;100294.63;;;18.17;100.00
46087;BME280;31824;49.648;8.640;2023-09-19T09:51:42;100302.78;;;18.49;100.00
46087;BME280;31824;49.648;8.640;2023-09-19T09:55:01;100304.66;;;18.36;100.00
46087;BME280;31824;49.648;8.640;2023-09-19T09:58:17;100309.88;;;18.63;100.00
46087;BME280;31824;49.648;8.640;2023-09-19T10:01:26;100295.06;;;18.53;100.00
46087;BME280;31824;49.648;8.640;2023-09-19T10:04:30;100279.59;;;18.61;100.00
46087;BME280;31824;49.648;8.640;2023-09-19T10:07:38;100283.97;;;18.46;100.00
46087;BME280;31824;49.648;8.640;2023-09-19T10:10:45;100277.50;;;18.27;100.00
46087;BME280;31824;49.648;8.640;2023-09-19T10:14:00;100274.56;;;18.66;100.00
46087;BME280;31824;49.648;8.640;2023-09-19T10:17:05;100274.59;;;18.96;100.00
46087;BME280;31824;49.648;8.640;2023-09-19T10:20:08;100270.88;;;18.64;100.00
46087;BME280;31824;49.648;8.640;2023-09-19T10:23:20;100282.66;;;18.82;100.00
46087;BME280;31824;49.648;8.640;2023-09-19T10:26:27;100263.81;;;18.64;100.00
46087;BME280;31824;49.648;8.640;2023-09-19T10:29:36;100260.97;;;18.76;100.00
46087;BME280;31824;49.648;8.640;2023-09-19T10:32:41;100277.16;;;19.09;100.00
46087;BME280;31824;49.648;8.640;2023-09-19T10:35:45;100283.59;;;19.13;100.00
46087;BME280;31824;49.648;8.640;2023-09-19T10:38:47;100276.97;;;19.21;100.00
46087;BME280;31824;49.648;8.640;2023-09-19T10:41:51;100262.00;;;19.38;100.00
46087;BME280;31824;49.648;8.640;2023-09-19T10:44:57;100269.22;;;19.40;100.00
46087;BME280;31824;49.648;8.640;2023-09-19T10:48:02;100274.34;;;19.52;100.00
46087;BME280;31824;49.648;8.640;2023-09-19T10:51:07;100258.59;;;19.72;100.00
46087;BME280;31824;49.648;8.640;2023-09-19T10:54:12;100277.69;;;20.11;100.00
46087;BME280;31824;49.648;8.640;2023-09-19T10:57:19;100268.03;;;20.13;100.00
46087;BME280;31824;49.648;8.640;2023-09-19T11:00:22;100266.25;;;19.66;100.00
46087;BME280;31824;49.648;8.640;2023-09-19T11:03:30;100260.91;;;19.81;100.00
46087;BME280;31824;49.648;8.640;2023-09-19T11:06:32;100259.81;;;19.94;100.00
46087;BME280;31824;49.648;8.640;2023-09-19T11:09:48;100266.22;;;19.81;100.00
46087;BME280;31824;49.648;8.640;2023-09-19T11:13:25;100244.06;;;19.50;100.00
46087;BME280;31824;49.648;8.640;2023-09-19T11:16:35;100253.53;;;19.77;100.00
46087;BME280;31824;49.648;8.640;2023-09-19T11:23:22;100232.69;;;20.34;100.00
46087;BME280;31824;49.648;8.640;2023-09-19T11:26:40;100225.81;;;20.72;100.00
46087;BME280;31824;49.648;8.640;2023-09-19T11:29:45;100231.03;;;20.87;100.00
46087;BME280;31824;49.648;8.640;2023-09-19T11:33:19;100228.34;;;20.87;100.00
46087;BME280;31824;49.648;8.640;2023-09-19T11:36:35;100234.72;;;21.43;100.00
46087;BME280;31824;49.648;8.640;2023-09-19T11:39:38;100227.63;;;21.07;100.00
46087;BME280;31824;49.648;8.640;2023-09-19T11:42:44;100228.22;;;21.20;100.00
46087;BME280;31824;49.648;8.640;2023-09-19T11:46:06;100225.44;;;21.53;100.00
46087;BME280;31824;49.648;8.640;2023-09-19T11:49:10;100229.09;;;21.37;100.00
46087;BME280;31824;49.648;8.640;2023-09-19T11:52:21;100218.53;;;21.40;100.00
46087;BME280;31824;49.648;8.640;2023-09-19T11:55:28;100221.66;;;21.13;100.00
46087;BME280;31824;49.648;8.640;2023-09-19T11:58:32;100226.81;;;20.74;100.00
46087;BME280;31824;49.648;8.640;2023-09-19T12:01:34;100210.34;;;20.83;100.00
46087;BME280;31824;49.648;8.640;2023-09-19T12:04:39;100204.59;;;20.75;100.00
46087;BME280;31824;49.648;8.640;2023-09-19T12:07:43;100209.53;;;20.84;100.00
46087;BME280;31824;49.648;8.640;2023-09-19T12:10:50;100208.09;;;20.90;100.00
46087;BME280;31824;49.648;8.640;2023-09-19T12:13:56;100201.91;;;21.10;100.00
46087;BME280;31824;49.648;8.640;2023-09-19T12:17:02;100212.38;;;21.23;100.00
46087;BME280;31824;49.648;8.640;2023-09-19T12:20:07;100208.84;;;21.06;100.00
46087;BME280;31824;49.648;8.640;2023-09-19T12:23:15;100206.56;;;21.32;100.00
46087;BME280;31824;49.648;8.640;2023-09-19T12:26:17;100195.88;;;21.87;100.00
46087;BME280;31824;49.648;8.640;2023-09-19T12:29:20;100192.88;;;21.62;100.00
46087;BME280;31824;49.648;8.640;2023-09-19T12:32:34;100191.69;;;21.19;100.00
46087;BME280;31824;49.648;8.640;2023-09-19T12:35:37;100184.84;;;21.99;100.00
46087;BME280;31824;49.648;8.640;2023-09-19T12:38:47;100181.13;;;21.58;100.00
46087;BME280;31824;49.648;8.640;2023-09-19T12:41:50;100193.91;;;21.83;100.00
46087;BME280;31824;49.648;8.640;2023-09-19T12:44:52;100183.00;;;22.18;100.00
46087;BME280;31824;49.648;8.640;2023-09-19T12:48:17;100177.44;;;22.73;100.00
46087;BME280;31824;49.648;8.640;2023-09-19T12:51:20;100168.75;;;23.00;100.00
46087;BME280;31824;49.648;8.640;2023-09-19T12:54:37;100169.41;;;22.73;100.00
46087;BME280;31824;49.648;8.640;2023-09-19T12:57:40;100174.25;;;22.82;100.00
46087;BME280;31824;49.648;8.640;2023-09-19T13:00:43;100177.91;;;22.04;100.00
46087;BME280;31824;49.648;8.640;2023-09-19T13:04:13;100173.09;;;21.58;100.00
46087;BME280;31824;49.648;8.640;2023-09-19T13:07:42;100171.00;;;21.70;100.00
46087;BME280;31824;49.648;8.640;2023-09-19T13:11:15;100159.91;;;22.20;100.00
46087;BME280;31824;49.648;8.640;2023-09-19T13:14:23;100168.84;;;22.20;100.00
46087;BME280;31824;49.648;8.640;2023-09-19T13:17:26;100165.88;;;21.95;100.00
46087;BME280;31824;49.648;8.640;2023-09-19T13:21:07;100152.66;;;22.17;100.00
46087;BME280;31824;49.648;8.640;2023-09-19T13:24:22;100165.06;;;22.35;100.00
46087;BME280;31824;49.648;8.640;2023-09-19T13:27:24;100149.41;;;22.44;100.00
46087;BME280;31824;49.648;8.640;2023-09-19T13:30:27;100151.97;;;22.02;100.00
46087;BME280;31824;49.648;8.640;2023-09-19T13:33:34;100143.81;;;21.79;100.00
46087;BME280;31824;49.648;8.640;2023-09-19T13:36:37;100140.25;;;22.19;100.00
46087;BME280;31824;49.648;8.640;2023-09-19T13:39:40;100143.34;;;22.69;100.00
46087;BME280;31824;49.648;8.640;2023-09-19T13:42:49;100142.81;;;22.99;100.00
46087;BME280;31824;49.648;8.640;2023-09-19T13:45:52;100141.06;;;23.00;100.00
46087;BME280;31824;49.648;8.640;2023-09-19T13:48:54;100134.63;;;23.17;100.00
46087;BME280;31824;49.648;8.640;2023-09-19T13:51:56;100128.28;;;22.94;100.00
46087;BME280;31824;49.648;8.640;2023-09-19T13:54:59;100136.66;;;22.38;100.00
46087;BME280;31824;49.648;8.640;2023-09-19T13:58:01;100126.44;;;22.30;100.00
46087;BME280;31824;49.648;8.640;2023-09-19T14:04:05;100131.66;;;22.07;100.00
46087;BME280;31824;49.648;8.640;2023-09-19T14:07:07;100131.91;;;22.33;100.00
46087;BME280;31824;49.648;8.640;2023-09-19T14:10:11;100123.31;;;21.99;100.00
46087;BME280;31824;49.648;8.640;2023-09-19T14:13:13;100114.03;;;21.91;100.00
46087;BME280;31824;49.648;8.640;2023-09-19T14:16:16;100115.63;;;22.26;100.00
46087;BME280;31824;49.648;8.640;2023-09-19T14:19:19;100119.09;;;22.45;100.00
46087;BME280;31824;49.648;8.640;2023-09-19T14:22:21;100118.47;;;22.72;100.00
46087;BME280;31824;49.648;8.640;2023-09-19T14:25:24;100132.16;;;22.37;100.00
46087;BME280;31824;49.648;8.640;2023-09-19T14:28:26;100130.13;;;22.12;100.00
46087;BME280;31824;49.648;8.640;2023-09-19T14:31:28;100121.25;;;22.13;100.00
46087;BME280;31824;49.648;8.640;2023-09-19T14:34:30;100111.47;;;22.14;100.00
46087;BME280;31824;49.648;8.640;2023-09-19T14:37:34;100115.25;;;22.19;100.00
46087;BME280;31824;49.648;8.640;2023-09-19T14:40:42;100106.34;;;22.18;100.00
46087;BME280;31824;49.648;8.640;2023-09-19T14:43:44;100115.63;;;22.07;100.00
46087;BME280;31824;49.648;8.640;2023-09-19T14:46:46;100110.00;;;21.81;100.00
46087;BME280;31824;49.648;8.640;2023-09-19T14:49:48;100110.00;;;22.01;100.00
46087;BME280;31824;49.648;8.640;2023-09-19T14:52:49;100109.00;;;22.18;100.00
46087;BME280;31824;49.648;8.640;2023-09-19T14:55:54;100108.78;;;22.14;100.00
46087;BME280;31824;49.648;8.640;2023-09-19T14:58:57;100111.28;;;22.09;100.00
46087;BME280;31824;49.648;8.640;2023-09-19T15:01:59;100094.91;;;22.22;100.00
46087;BME280;31824;49.648;8.640;2023-09-19T15:05:01;100092.31;;;22.24;100.00
46087;BME280;31824;49.648;8.640;2023-09-19T15:08:03;100093.63;;;22.76;100.00
46087;BME280;31824;49.648;8.640;2023-09-19T15:11:07;100097.16;;;22.75;100.00
46087;BME280;31824;49.648;8.640;2023-09-19T15:14:09;100085.16;;;22.86;100.00
46087;BME280;31824;49.648;8.640;2023-09-19T15:17:11;100081.78;;;22.92;100.00
46087;BME280;31824;49.648;8.640;2023-09-19T15:20:13;100085.66;;;23.21;100.00
46087;BME280;31824;49.648;8.640;2023-09-19T15:23:15;100079.91;;;22.89;100.00
46087;BME280;31824;49.648;8.640;2023-09-19T15:26:21;100083.59;;;22.70;100.00
46087;BME280;31824;49.648;8.640;2023-09-19T15:29:24;100080.97;;;22.72;100.00
46087;BME280;31824;49.648;8.640;2023-09-19T15:32:26;100092.78;;;22.56;100.00
46087;BME280;31824;49.648;8.640;2023-09-19T15:35:28;100081.63;;;22.45;100.00
46087;BME280;31824;49.648;8.640;2023-09-19T15:43:08;100081.66;;;22.25;100.00
46087;BME280;31824;49.648;8.640;2023-09-19T15:46:10;100070.06;;;22.05;100.00
46087;BME280;31824;49.648;8.640;2023-09-19T15:49:12;100066.09;;;21.96;100.00
46087;BME280;31824;49.648;8.640;2023-09-19T15:52:17;100068.41;;;22.07;100.00
46087;BME280;31824;49.648;8.640;2023-09-19T15:55:19;100072.19;;;22.13;100.00
46087;BME280;31824;49.648;8.640;2023-09-19T15:58:22;100070.13;;;22.07;100.00
46087;BME280;31824;49.648;8.640;2023-09-19T16:01:24;100065.66;;;22.06;100.00
46087;BME280;31824;49.648;8.640;2023-09-19T16:04:27;100059.47;;;21.87;100.00
46087;BME280;31824;49.648;8.640;2023-09-19T16:07:28;100062.34;;;21.92;100.00